createdAt,value
2018-03-22T00:00:43.119Z,1015.53
2018-03-22T00:01:43.032Z,1015.48
2018-03-22T00:02:42.957Z,1015.48
2018-03-22T00:03:42.870Z,1015.43
2018-03-22T00:04:42.785Z,1015.39
2018-03-22T00:05:42.708Z,1015.39
2018-03-22T00:06:42.624Z,1015.43
2018-03-22T00:07:42.533Z,1015.42
2018-03-22T00:08:42.458Z,1015.42
2018-03-22T00:09:42.371Z,1015.41
2018-03-22T00:10:42.284Z,1015.42
2018-03-22T00:11:42.207Z,1015.41
2018-03-22T00:12:42.120Z,1015.42
2018-03-22T00:13:42.045Z,1015.39
2018-03-22T00:14:41.959Z,1015.45
2018-03-22T00:15:41.872Z,1015.40
2018-03-22T00:16:41.796Z,1015.35
2018-03-22T00:17:41.710Z,1015.33
2018-03-22T00:18:41.622Z,1015.31
2018-03-22T00:19:41.546Z,1015.35
2018-03-22T00:20:41.461Z,1015.35
2018-03-22T00:21:41.373Z,1015.31
2018-03-22T00:22:41.297Z,1015.30
2018-03-22T00:23:41.209Z,1015.28
2018-03-22T00:24:41.124Z,1015.22
2018-03-22T00:25:41.047Z,1015.24
2018-03-22T00:26:40.960Z,1015.21
2018-03-22T00:27:40.885Z,1015.19
2018-03-22T00:28:40.798Z,1015.17
2018-03-22T00:29:40.710Z,1015.15
2018-03-22T00:30:40.634Z,1015.12
2018-03-22T00:31:40.548Z,1015.06
2018-03-22T00:32:40.461Z,1015.07
2018-03-22T00:33:40.389Z,1015.04
2018-03-22T00:34:40.299Z,1015.05
2018-03-22T00:35:40.209Z,1015.04
2018-03-22T00:36:40.134Z,1014.98
2018-03-22T00:37:40.046Z,1015.00
2018-03-22T00:38:39.971Z,1014.95
2018-03-22T00:39:39.885Z,1014.98
2018-03-22T00:40:39.795Z,1014.94
2018-03-22T00:41:39.721Z,1014.91
2018-03-22T00:42:39.635Z,1014.87
2018-03-22T00:43:39.546Z,1014.90
2018-03-22T00:44:39.472Z,1014.89
2018-03-22T00:45:39.385Z,1014.87
2018-03-22T00:46:39.297Z,1014.83
2018-03-22T00:47:39.235Z,1014.80
2018-03-22T00:48:39.138Z,1014.81
2018-03-22T00:49:39.047Z,1014.77
2018-03-22T00:50:38.972Z,1014.77
2018-03-22T00:51:38.885Z,1014.80
2018-03-22T00:52:38.797Z,1014.78
2018-03-22T00:53:38.736Z,1014.74
2018-03-22T00:54:38.638Z,1014.71
2018-03-22T00:55:38.547Z,1014.70
2018-03-22T00:56:38.474Z,1014.67
2018-03-22T00:57:38.385Z,1014.66
2018-03-22T00:58:38.299Z,1014.61
2018-03-22T00:59:38.240Z,1014.59
2018-03-22T01:00:38.136Z,1014.64
2018-03-22T01:01:38.049Z,1014.63
2018-03-22T01:02:37.974Z,1014.58
2018-03-22T01:03:37.887Z,1014.58
2018-03-22T01:04:37.800Z,1014.61
2018-03-22T01:05:37.739Z,1014.57
2018-03-22T01:06:37.637Z,1014.57
2018-03-22T01:07:37.550Z,1014.55
2018-03-22T01:08:37.474Z,1014.51
2018-03-22T01:09:37.387Z,1014.52
2018-03-22T01:10:37.311Z,1014.49
2018-03-22T01:11:37.226Z,1014.49
2018-03-22T01:12:37.137Z,1014.47
2018-03-22T01:13:37.062Z,1014.44
2018-03-22T01:14:36.974Z,1014.42
2018-03-22T01:15:36.891Z,1014.40
2018-03-22T01:16:36.811Z,1014.36
2018-03-22T01:17:36.725Z,1014.34
2018-03-22T01:18:36.638Z,1014.29
2018-03-22T01:19:36.551Z,1014.27
2018-03-22T01:20:36.475Z,1014.25
2018-03-22T01:21:36.389Z,1014.25
2018-03-22T01:22:36.313Z,1014.20
2018-03-22T01:23:36.226Z,1014.17
2018-03-22T01:24:36.139Z,1014.13
2018-03-22T01:25:36.063Z,1014.11
2018-03-22T01:26:35.976Z,1014.14
2018-03-22T01:27:35.890Z,1014.05
2018-03-22T01:28:35.815Z,1014.03
2018-03-22T01:29:35.727Z,1013.99
2018-03-22T01:30:35.640Z,1014.02
2018-03-22T01:31:35.552Z,1013.98
2018-03-22T01:32:35.477Z,1013.96
2018-03-22T01:33:35.390Z,1013.95
2018-03-22T01:34:35.303Z,1013.90
2018-03-22T01:35:35.227Z,1013.87
2018-03-22T01:36:35.140Z,1013.81
2018-03-22T01:37:35.053Z,1013.81
2018-03-22T01:38:34.981Z,1013.79
2018-03-22T01:39:34.891Z,1013.74
2018-03-22T01:40:34.803Z,1013.75
2018-03-22T01:41:34.727Z,1013.72
2018-03-22T01:42:34.641Z,1013.68
2018-03-22T01:43:34.553Z,1013.66
2018-03-22T01:44:34.490Z,1013.69
2018-03-22T01:45:34.391Z,1013.66
2018-03-22T01:46:34.304Z,1013.62
2018-03-22T01:47:34.237Z,1013.59
2018-03-22T01:48:34.142Z,1013.61
2018-03-22T01:49:34.053Z,1013.59
2018-03-22T01:50:33.992Z,1013.55
2018-03-22T01:51:33.892Z,1013.55
2018-03-22T01:52:33.803Z,1013.56
2018-03-22T01:53:33.727Z,1013.55
2018-03-22T01:54:33.642Z,1013.52
2018-03-22T01:55:33.553Z,1013.45
2018-03-22T01:56:33.480Z,1013.43
2018-03-22T01:57:33.392Z,1013.40
2018-03-22T01:58:33.306Z,1013.40
2018-03-22T01:59:33.217Z,1013.39
2018-03-22T02:00:33.142Z,1013.35
2018-03-22T02:01:33.056Z,1013.33
2018-03-22T02:02:32.968Z,1013.33
2018-03-22T02:03:32.892Z,1013.31
2018-03-22T02:04:32.804Z,1013.31
2018-03-22T02:05:32.718Z,1013.28
2018-03-22T02:06:32.643Z,1013.31
2018-03-22T02:07:32.554Z,1013.27
2018-03-22T02:08:32.468Z,1013.19
2018-03-22T02:09:32.393Z,1013.18
2018-03-22T02:10:32.305Z,1013.13
2018-03-22T02:11:32.271Z,1013.07
2018-03-22T02:12:32.146Z,1013.06
2018-03-22T02:13:32.057Z,1013.04
2018-03-22T02:14:31.968Z,1013.01
2018-03-22T02:15:31.881Z,1012.98
2018-03-22T02:16:31.805Z,1012.96
2018-03-22T02:17:31.719Z,1012.94
2018-03-22T02:18:31.632Z,1012.90
2018-03-22T02:19:31.557Z,1012.91
2018-03-22T02:20:31.470Z,1012.91
2018-03-22T02:21:31.382Z,1012.90
2018-03-22T02:22:31.307Z,1012.87
2018-03-22T02:23:31.219Z,1012.88
2018-03-22T02:24:31.134Z,1012.84
2018-03-22T02:25:31.057Z,1012.84
2018-03-22T02:26:30.970Z,1012.82
2018-03-22T02:27:30.882Z,1012.77
2018-03-22T02:28:30.820Z,1012.81
2018-03-22T02:29:30.971Z,1012.77
2018-03-22T02:30:30.633Z,1012.73
2018-03-22T02:31:30.545Z,1012.77
2018-03-22T02:32:30.474Z,1012.72
2018-03-22T02:33:30.382Z,1012.71
2018-03-22T02:34:30.300Z,1012.71
2018-03-22T02:35:30.221Z,1012.72
2018-03-22T02:36:30.132Z,1012.67
2018-03-22T02:37:30.048Z,1012.72
2018-03-22T02:38:29.972Z,1012.66
2018-03-22T02:39:30.184Z,1012.64
2018-03-22T02:40:29.798Z,1012.63
2018-03-22T02:41:29.710Z,1012.65
2018-03-22T02:42:29.633Z,1012.55
2018-03-22T02:43:29.548Z,1012.60
2018-03-22T02:44:29.471Z,1012.58
2018-03-22T02:45:29.397Z,1012.54
2018-03-22T02:46:29.299Z,1012.52
2018-03-22T02:47:29.210Z,1012.46
2018-03-22T02:48:29.137Z,1012.49
2018-03-22T02:49:29.047Z,1012.45
2018-03-22T02:50:28.972Z,1012.47
2018-03-22T02:51:28.874Z,1012.42
2018-03-22T02:52:28.804Z,1012.41
2018-03-22T02:53:28.710Z,1012.42
2018-03-22T02:54:28.624Z,1012.37
2018-03-22T02:55:28.549Z,1012.34
2018-03-22T02:56:28.474Z,1012.34
2018-03-22T02:57:28.373Z,1012.26
2018-03-22T02:58:28.303Z,1012.24
2018-03-22T02:59:28.225Z,1012.21
2018-03-22T03:00:28.126Z,1012.20
2018-03-22T03:01:28.038Z,1012.18
2018-03-22T03:02:27.974Z,1012.18
2018-03-22T03:03:27.876Z,1012.19
2018-03-22T03:04:27.787Z,1012.18
2018-03-22T03:05:27.713Z,1012.13
2018-03-22T03:06:27.624Z,1012.12
2018-03-22T03:07:27.536Z,1012.11
2018-03-22T03:08:27.463Z,1012.09
2018-03-22T03:09:27.374Z,1012.06
2018-03-22T03:10:27.286Z,1012.05
2018-03-22T03:11:27.212Z,1012.04
2018-03-22T03:12:27.124Z,1012.03
2018-03-22T03:13:27.037Z,1011.97
2018-03-22T03:14:26.950Z,1011.97
2018-03-22T03:15:26.875Z,1011.99
2018-03-22T03:16:26.787Z,1011.97
2018-03-22T03:17:26.700Z,1011.94
2018-03-22T03:18:26.625Z,1011.90
2018-03-22T03:19:26.787Z,1011.83
2018-03-22T03:20:26.450Z,1011.80
2018-03-22T03:21:26.376Z,1011.79
2018-03-22T03:22:26.287Z,1011.82
2018-03-22T03:23:26.206Z,1011.82
2018-03-22T03:24:26.115Z,1011.78
2018-03-22T03:25:26.037Z,1011.76
2018-03-22T03:26:25.954Z,1011.76
2018-03-22T03:27:25.862Z,1011.73
2018-03-22T03:28:25.788Z,1011.66
2018-03-22T03:29:25.718Z,1011.71
2018-03-22T03:30:25.676Z,1011.62
2018-03-22T03:31:25.527Z,1011.62
2018-03-22T03:32:25.452Z,1011.55
2018-03-22T03:33:25.364Z,1011.56
2018-03-22T03:34:25.288Z,1011.49
2018-03-22T03:35:25.202Z,1011.45
2018-03-22T03:36:25.126Z,1011.45
2018-03-22T03:37:25.027Z,1011.41
2018-03-22T03:38:24.952Z,1011.37
2018-03-22T03:39:25.126Z,1011.35
2018-03-22T03:40:24.778Z,1011.32
2018-03-22T03:41:24.712Z,1011.29
2018-03-22T03:42:24.614Z,1011.29
2018-03-22T03:43:24.528Z,1011.28
2018-03-22T03:44:24.440Z,1011.29
2018-03-22T03:45:24.365Z,1011.29
2018-03-22T03:46:24.278Z,1011.31
2018-03-22T03:47:24.189Z,1011.29
2018-03-22T03:48:24.110Z,1011.28
2018-03-22T03:49:24.033Z,1011.27
2018-03-22T03:50:23.940Z,1011.22
2018-03-22T03:51:23.854Z,1011.21
2018-03-22T03:52:23.779Z,1011.13
2018-03-22T03:53:23.690Z,1011.13
2018-03-22T03:54:23.603Z,1011.14
2018-03-22T03:55:23.517Z,1011.14
2018-03-22T03:56:23.441Z,1011.11
2018-03-22T03:57:23.354Z,1011.06
2018-03-22T03:58:23.267Z,1010.99
2018-03-22T03:59:23.205Z,1010.97
2018-03-22T04:00:23.110Z,1010.89
2018-03-22T04:01:23.022Z,1010.92
2018-03-22T04:02:22.942Z,1010.98
2018-03-22T04:03:22.854Z,1010.96
2018-03-22T04:04:22.767Z,1010.94
2018-03-22T04:05:22.680Z,1010.95
2018-03-22T04:06:22.605Z,1010.96
2018-03-22T04:07:22.517Z,1010.95
2018-03-22T04:08:22.431Z,1010.92
2018-03-22T04:09:22.356Z,1010.91
2018-03-22T04:10:22.267Z,1010.92
2018-03-22T04:11:22.180Z,1010.87
2018-03-22T04:12:22.095Z,1010.82
2018-03-22T04:13:22.017Z,1010.83
2018-03-22T04:14:21.931Z,1010.78
2018-03-22T04:15:21.843Z,1010.74
2018-03-22T04:16:21.768Z,1010.74
2018-03-22T04:17:21.681Z,1010.67
2018-03-22T04:18:21.606Z,1010.69
2018-03-22T04:19:21.518Z,1010.64
2018-03-22T04:20:21.432Z,1010.61
2018-03-22T04:21:21.343Z,1010.60
2018-03-22T04:22:21.268Z,1010.55
2018-03-22T04:23:21.182Z,1010.50
2018-03-22T04:24:21.095Z,1010.53
2018-03-22T04:25:21.007Z,1010.53
2018-03-22T04:26:20.932Z,1010.50
2018-03-22T04:27:20.844Z,1010.50
2018-03-22T04:28:20.757Z,1010.45
2018-03-22T04:29:20.670Z,1010.44
2018-03-22T04:30:20.593Z,1010.40
2018-03-22T04:31:20.508Z,1010.41
2018-03-22T04:32:20.420Z,1010.37
2018-03-22T04:33:20.346Z,1010.36
2018-03-22T04:34:20.258Z,1010.40
2018-03-22T04:35:20.171Z,1010.34
2018-03-22T04:36:20.086Z,1010.36
2018-03-22T04:37:20.008Z,1010.37
2018-03-22T04:38:19.921Z,1010.34
2018-03-22T04:39:19.836Z,1010.38
2018-03-22T04:40:19.747Z,1010.37
2018-03-22T04:41:19.670Z,1010.37
2018-03-22T04:42:19.586Z,1010.34
2018-03-22T04:43:19.495Z,1010.36
2018-03-22T04:44:19.421Z,1010.36
2018-03-22T04:45:19.333Z,1010.28
2018-03-22T04:46:19.258Z,1010.31
2018-03-22T04:47:19.171Z,1010.28
2018-03-22T04:48:19.091Z,1010.21
2018-03-22T04:49:18.996Z,1010.22
2018-03-22T04:50:18.910Z,1010.25
2018-03-22T04:51:18.835Z,1010.22
2018-03-22T04:52:18.760Z,1010.17
2018-03-22T04:53:18.659Z,1010.18
2018-03-22T04:54:18.588Z,1010.15
2018-03-22T04:55:18.499Z,1010.12
2018-03-22T04:56:18.409Z,1010.14
2018-03-22T04:57:18.323Z,1010.10
2018-03-22T04:58:18.260Z,1010.05
2018-03-22T04:59:18.200Z,1010.10
2018-03-22T05:00:18.072Z,1010.08
2018-03-22T05:01:18.000Z,1010.04
2018-03-22T05:02:17.911Z,1010.01
2018-03-22T05:03:17.823Z,1010.02
2018-03-22T05:04:17.748Z,1009.99
2018-03-22T05:05:17.661Z,1009.98
2018-03-22T05:06:17.572Z,1009.98
2018-03-22T05:07:17.486Z,1010.00
2018-03-22T05:08:17.411Z,1009.93
2018-03-22T05:09:17.323Z,1009.99
2018-03-22T05:10:17.247Z,1009.91
2018-03-22T05:11:17.161Z,1009.93
2018-03-22T05:12:17.086Z,1009.92
2018-03-22T05:13:16.986Z,1009.88
2018-03-22T05:14:16.900Z,1009.85
2018-03-22T05:15:16.823Z,1009.87
2018-03-22T05:16:16.739Z,1009.87
2018-03-22T05:17:16.649Z,1009.85
2018-03-22T05:18:16.573Z,1009.82
2018-03-22T05:19:16.487Z,1009.82
2018-03-22T05:20:16.399Z,1009.82
2018-03-22T05:21:16.324Z,1009.82
2018-03-22T05:22:16.238Z,1009.84
2018-03-22T05:23:16.149Z,1009.83
2018-03-22T05:24:16.063Z,1009.82
2018-03-22T05:25:15.987Z,1009.85
2018-03-22T05:26:15.899Z,1009.78
2018-03-22T05:27:15.838Z,1009.82
2018-03-22T05:28:15.739Z,1009.82
2018-03-22T05:29:15.649Z,1009.76
2018-03-22T05:30:15.563Z,1009.77
2018-03-22T05:31:15.489Z,1009.81
2018-03-22T05:32:15.400Z,1009.81
2018-03-22T05:33:15.313Z,1009.83
2018-03-22T05:34:15.238Z,1009.85
2018-03-22T05:35:15.150Z,1009.85
2018-03-22T05:36:15.063Z,1009.86
2018-03-22T05:37:14.977Z,1009.84
2018-03-22T05:38:14.900Z,1009.87
2018-03-22T05:39:14.814Z,1009.87
2018-03-22T05:40:14.726Z,1009.86
2018-03-22T05:41:14.650Z,1009.81
2018-03-22T05:42:14.565Z,1009.81
2018-03-22T05:43:14.477Z,1009.80
2018-03-22T05:44:14.401Z,1009.79
2018-03-22T05:45:14.314Z,1009.81
2018-03-22T05:46:14.226Z,1009.77
2018-03-22T05:47:14.152Z,1009.79
2018-03-22T05:48:14.066Z,1009.78
2018-03-22T05:49:13.977Z,1009.79
2018-03-22T05:50:13.901Z,1009.75
2018-03-22T05:51:13.818Z,1009.73
2018-03-22T05:52:13.728Z,1009.76
2018-03-22T05:53:13.640Z,1009.77
2018-03-22T05:54:13.576Z,1009.73
2018-03-22T05:55:13.478Z,1009.69
2018-03-22T05:56:13.391Z,1009.62
2018-03-22T05:57:13.315Z,1009.56
2018-03-22T05:58:13.241Z,1009.58
2018-03-22T05:59:13.143Z,1009.54
2018-03-22T06:00:13.055Z,1009.55
2018-03-22T06:01:12.991Z,1009.56
2018-03-22T06:02:12.892Z,1009.51
2018-03-22T06:03:12.807Z,1009.54
2018-03-22T06:04:12.730Z,1009.43
2018-03-22T06:05:12.642Z,1009.39
2018-03-22T06:06:12.554Z,1009.39
2018-03-22T06:07:12.489Z,1009.40
2018-03-22T06:08:12.393Z,1009.33
2018-03-22T06:09:12.304Z,1009.29
2018-03-22T06:10:12.229Z,1009.27
2018-03-22T06:11:12.142Z,1009.27
2018-03-22T06:12:12.054Z,1009.28
2018-03-22T06:13:11.979Z,1009.19
2018-03-22T06:14:11.892Z,1009.14
2018-03-22T06:15:11.804Z,1009.14
2018-03-22T06:16:11.718Z,1009.07
2018-03-22T06:17:11.642Z,1009.11
2018-03-22T06:18:11.555Z,1009.04
2018-03-22T06:19:11.468Z,1009.02
2018-03-22T06:20:11.394Z,1009.01
2018-03-22T06:21:11.305Z,1008.97
2018-03-22T06:22:11.219Z,1008.95
2018-03-22T06:23:11.148Z,1008.93
2018-03-22T06:24:11.068Z,1008.92
2018-03-22T06:25:10.969Z,1008.89
2018-03-22T06:26:10.893Z,1008.94
2018-03-22T06:27:10.806Z,1008.87
2018-03-22T06:28:10.732Z,1008.87
2018-03-22T06:29:10.643Z,1008.84
2018-03-22T06:30:10.556Z,1008.85
2018-03-22T06:31:10.471Z,1008.80
2018-03-22T06:32:10.385Z,1008.74
2018-03-22T06:33:10.306Z,1008.72
2018-03-22T06:34:10.225Z,1008.72
2018-03-22T06:35:10.132Z,1008.74
2018-03-22T06:36:10.056Z,1008.64
2018-03-22T06:37:09.970Z,1008.64
2018-03-22T06:38:09.883Z,1008.60
2018-03-22T06:39:09.820Z,1008.59
2018-03-22T06:40:09.727Z,1008.66
2018-03-22T06:41:09.632Z,1008.61
2018-03-22T06:42:09.556Z,1008.54
2018-03-22T06:43:09.471Z,1008.54
2018-03-22T06:44:09.382Z,1008.55
2018-03-22T06:45:09.320Z,1008.55
2018-03-22T06:46:09.222Z,1008.52
2018-03-22T06:47:09.133Z,1008.46
2018-03-22T06:48:09.059Z,1008.51
2018-03-22T06:49:08.970Z,1008.45
2018-03-22T06:50:08.884Z,1008.49
2018-03-22T06:51:08.810Z,1008.44
2018-03-22T06:52:08.724Z,1008.49
2018-03-22T06:53:08.632Z,1008.46
2018-03-22T06:54:08.559Z,1008.42
2018-03-22T06:55:08.472Z,1008.39
2018-03-22T06:56:08.383Z,1008.33
2018-03-22T06:57:08.312Z,1008.31
2018-03-22T06:58:08.227Z,1008.31
2018-03-22T06:59:08.136Z,1008.27
2018-03-22T07:00:08.058Z,1008.26
2018-03-22T07:01:07.971Z,1008.18
2018-03-22T07:02:07.884Z,1008.19
2018-03-22T07:03:07.798Z,1008.27
2018-03-22T07:04:07.722Z,1008.18
2018-03-22T07:05:07.635Z,1008.16
2018-03-22T07:06:07.550Z,1008.09
2018-03-22T07:07:07.474Z,1008.10
2018-03-22T07:08:07.384Z,1008.11
2018-03-22T07:09:07.303Z,1008.07
2018-03-22T07:10:07.223Z,1008.05
2018-03-22T07:11:07.134Z,1008.08
2018-03-22T07:12:07.054Z,1008.01
2018-03-22T07:13:06.961Z,1008.06
2018-03-22T07:14:06.884Z,1008.07
2018-03-22T07:15:06.803Z,1008.03
2018-03-22T07:16:06.724Z,1008.08
2018-03-22T07:17:06.624Z,1008.09
2018-03-22T07:18:06.553Z,1008.07
2018-03-22T07:19:06.461Z,1008.05
2018-03-22T07:20:06.374Z,1008.04
2018-03-22T07:21:06.287Z,1008.04
2018-03-22T07:22:06.224Z,1008.05
2018-03-22T07:23:06.124Z,1007.92
2018-03-22T07:24:06.036Z,1007.94
2018-03-22T07:25:05.961Z,1007.92
2018-03-22T07:26:05.878Z,1007.89
2018-03-22T07:27:05.786Z,1007.88
2018-03-22T07:28:05.704Z,1007.87
2018-03-22T07:29:05.624Z,1007.83
2018-03-22T07:30:05.542Z,1007.75
2018-03-22T07:31:05.451Z,1007.75
2018-03-22T07:32:05.362Z,1007.69
2018-03-22T07:33:05.287Z,1007.67
2018-03-22T07:34:05.200Z,1007.66
2018-03-22T07:35:05.112Z,1007.65
2018-03-22T07:36:05.025Z,1007.59
2018-03-22T07:37:04.939Z,1007.60
2018-03-22T07:38:04.873Z,1007.59
2018-03-22T07:39:04.776Z,1007.51
2018-03-22T07:40:04.688Z,1007.52
2018-03-22T07:41:04.601Z,1007.45
2018-03-22T07:42:04.527Z,1007.42
2018-03-22T07:43:04.438Z,1007.48
2018-03-22T07:44:04.352Z,1007.41
2018-03-22T07:45:04.267Z,1007.42
2018-03-22T07:46:04.189Z,1007.39
2018-03-22T07:47:04.107Z,1007.34
2018-03-22T07:48:04.014Z,1007.31
2018-03-22T07:49:03.929Z,1007.34
2018-03-22T07:50:03.839Z,1007.36
2018-03-22T07:51:03.764Z,1007.30
2018-03-22T07:52:03.680Z,1007.30
2018-03-22T07:53:03.589Z,1007.28
2018-03-22T07:54:03.502Z,1007.24
2018-03-22T07:55:03.433Z,1007.23
2018-03-22T07:56:03.339Z,1007.23
2018-03-22T07:57:03.254Z,1007.17
2018-03-22T07:58:03.165Z,1007.18
2018-03-22T07:59:03.091Z,1007.16
2018-03-22T08:00:03.012Z,1007.22
2018-03-22T08:01:02.928Z,1007.24
2018-03-22T08:02:02.829Z,1007.23
2018-03-22T08:03:02.740Z,1007.25
2018-03-22T08:04:02.664Z,1007.16
2018-03-22T08:05:02.578Z,1007.13
2018-03-22T08:06:02.491Z,1007.19
2018-03-22T08:07:02.404Z,1007.26
2018-03-22T08:08:02.329Z,1007.18
2018-03-22T08:09:02.240Z,1007.09
2018-03-22T08:10:02.154Z,1007.11
2018-03-22T08:11:02.066Z,1007.05
2018-03-22T08:12:01.991Z,1007.06
2018-03-22T08:13:01.905Z,1007.08
2018-03-22T08:14:01.817Z,1007.02
2018-03-22T08:15:01.731Z,1007.01
2018-03-22T08:16:01.655Z,1006.97
2018-03-22T08:17:01.567Z,1007.00
2018-03-22T08:18:01.480Z,1006.90
2018-03-22T08:19:01.392Z,1006.94
2018-03-22T08:20:01.317Z,1006.99
2018-03-22T08:21:01.243Z,1006.93
2018-03-22T08:22:01.142Z,1006.89
2018-03-22T08:23:01.056Z,1006.95
2018-03-22T08:24:00.969Z,1006.92
2018-03-22T08:25:00.892Z,1006.86
2018-03-22T08:26:00.811Z,1006.92
2018-03-22T08:27:00.730Z,1006.88
2018-03-22T08:28:00.631Z,1006.88
2018-03-22T08:29:00.563Z,1006.92
2018-03-22T08:30:00.468Z,1006.82
2018-03-22T08:31:00.387Z,1006.88
2018-03-22T08:32:00.293Z,1006.82
2018-03-22T08:33:00.218Z,1006.82
2018-03-22T08:34:00.132Z,1006.86
2018-03-22T08:35:00.113Z,1006.86
2018-03-22T08:35:59.957Z,1006.82
2018-03-22T08:36:59.882Z,1006.82
2018-03-22T08:37:59.794Z,1006.79
2018-03-22T08:38:59.718Z,1006.77
2018-03-22T08:39:59.620Z,1006.79
2018-03-22T08:40:59.544Z,1006.73
2018-03-22T08:41:59.463Z,1006.79
2018-03-22T08:42:59.369Z,1006.73
2018-03-22T08:43:59.282Z,1006.74
2018-03-22T08:44:59.209Z,1006.76
2018-03-22T08:45:59.119Z,1006.71
2018-03-22T08:46:59.039Z,1006.72
2018-03-22T08:47:58.944Z,1006.68
2018-03-22T08:48:58.858Z,1006.72
2018-03-22T08:49:58.783Z,1006.74
2018-03-22T08:50:58.711Z,1006.70
2018-03-22T08:51:58.608Z,1006.66
2018-03-22T08:52:58.521Z,1006.69
2018-03-22T08:53:58.446Z,1006.73
2018-03-22T08:54:58.360Z,1006.70
2018-03-22T08:55:58.270Z,1006.70
2018-03-22T08:56:58.184Z,1006.68
2018-03-22T08:57:58.109Z,1006.69
2018-03-22T08:58:58.021Z,1006.70
2018-03-22T08:59:57.938Z,1006.65
2018-03-22T09:00:57.846Z,1006.63
2018-03-22T09:01:57.760Z,1006.65
2018-03-22T09:02:57.685Z,1006.60
2018-03-22T09:03:57.596Z,1006.58
2018-03-22T09:04:57.510Z,1006.59
2018-03-22T09:05:57.421Z,1006.59
2018-03-22T09:06:57.353Z,1006.55
2018-03-22T09:07:57.260Z,1006.52
2018-03-22T09:08:57.176Z,1006.51
2018-03-22T09:09:57.085Z,1006.47
2018-03-22T09:10:56.998Z,1006.47
2018-03-22T09:11:56.946Z,1006.45
2018-03-22T09:12:56.837Z,1006.37
2018-03-22T09:13:56.748Z,1006.43
2018-03-22T09:14:56.690Z,1006.43
2018-03-22T09:15:56.586Z,1006.33
2018-03-22T09:16:56.510Z,1006.30
2018-03-22T09:17:56.411Z,1006.29
2018-03-22T09:18:56.323Z,1006.31
2018-03-22T09:19:56.247Z,1006.27
2018-03-22T09:20:56.161Z,1006.28
2018-03-22T09:21:56.073Z,1006.21
2018-03-22T09:22:55.986Z,1006.24
2018-03-22T09:23:55.911Z,1006.26
2018-03-22T09:24:55.825Z,1006.22
2018-03-22T09:25:55.742Z,1006.26
2018-03-22T09:26:55.649Z,1006.22
2018-03-22T09:27:55.608Z,1006.18
2018-03-22T09:28:55.489Z,1006.19
2018-03-22T09:29:55.400Z,1006.22
2018-03-22T09:30:55.313Z,1006.16
2018-03-22T09:31:55.224Z,1006.18
2018-03-22T09:32:55.141Z,1006.19
2018-03-22T09:33:55.063Z,1006.18
2018-03-22T09:34:55.023Z,1006.16
2018-03-22T09:35:54.888Z,1006.10
2018-03-22T09:36:54.800Z,1006.18
2018-03-22T09:37:54.742Z,1006.13
2018-03-22T09:38:54.638Z,1006.11
2018-03-22T09:39:54.558Z,1006.09
2018-03-22T09:40:54.463Z,1006.02
2018-03-22T09:41:54.383Z,1006.07
2018-03-22T09:42:54.300Z,1006.07
2018-03-22T09:43:54.213Z,1006.08
2018-03-22T09:44:54.138Z,1006.07
2018-03-22T09:45:54.039Z,1006.01
2018-03-22T09:46:53.954Z,1006.03
2018-03-22T09:47:53.876Z,1005.95
2018-03-22T09:48:53.790Z,1005.93
2018-03-22T09:49:53.702Z,1005.93
2018-03-22T09:50:53.614Z,1005.94
2018-03-22T09:51:53.540Z,1005.93
2018-03-22T09:52:53.451Z,1005.90
2018-03-22T09:53:53.365Z,1005.94
2018-03-22T09:54:53.276Z,1005.89
2018-03-22T09:55:53.190Z,1005.90
2018-03-22T09:56:53.115Z,1005.89
2018-03-22T09:57:53.027Z,1005.90
2018-03-22T09:58:52.940Z,1005.91
2018-03-22T09:59:52.857Z,1005.89
2018-03-22T10:00:52.767Z,1005.92
2018-03-22T10:01:52.692Z,1005.87
2018-03-22T10:02:52.611Z,1005.88
2018-03-22T10:03:52.516Z,1005.76
2018-03-22T10:04:52.428Z,1005.87
2018-03-22T10:05:52.342Z,1005.85
2018-03-22T10:06:52.267Z,1005.85
2018-03-22T10:07:52.178Z,1005.84
2018-03-22T10:08:52.091Z,1005.86
2018-03-22T10:09:52.003Z,1005.87
2018-03-22T10:10:51.927Z,1005.82
2018-03-22T10:11:51.842Z,1005.83
2018-03-22T10:12:51.754Z,1005.77
2018-03-22T10:13:51.667Z,1005.88
2018-03-22T10:14:51.578Z,1005.92
2018-03-22T10:15:51.511Z,1005.89
2018-03-22T10:16:51.417Z,1005.81
2018-03-22T10:17:51.328Z,1005.79
2018-03-22T10:18:51.243Z,1005.74
2018-03-22T10:19:51.156Z,1005.69
2018-03-22T10:20:51.079Z,1005.71
2018-03-22T10:21:50.993Z,1005.68
2018-03-22T10:22:50.905Z,1005.71
2018-03-22T10:23:50.820Z,1005.70
2018-03-22T10:24:50.743Z,1005.74
2018-03-22T10:25:50.654Z,1005.74
2018-03-22T10:26:50.569Z,1005.76
2018-03-22T10:27:50.480Z,1005.71
2018-03-22T10:28:50.405Z,1005.75
2018-03-22T10:29:50.318Z,1005.67
2018-03-22T10:30:50.243Z,1005.67
2018-03-22T10:31:50.143Z,1005.62
2018-03-22T10:32:50.057Z,1005.66
2018-03-22T10:33:49.981Z,1005.64
2018-03-22T10:34:49.905Z,1005.57
2018-03-22T10:35:49.807Z,1005.59
2018-03-22T10:36:49.721Z,1005.63
2018-03-22T10:37:49.646Z,1005.59
2018-03-22T10:38:49.556Z,1005.58
2018-03-22T10:39:49.475Z,1005.59
2018-03-22T10:40:49.381Z,1005.58
2018-03-22T10:41:49.306Z,1005.55
2018-03-22T10:42:49.225Z,1005.60
2018-03-22T10:43:49.131Z,1005.58
2018-03-22T10:44:49.045Z,1005.60
2018-03-22T10:45:48.970Z,1005.57
2018-03-22T10:46:48.898Z,1005.50
2018-03-22T10:47:48.795Z,1005.56
2018-03-22T10:48:48.707Z,1005.53
2018-03-22T10:49:48.631Z,1005.54
2018-03-22T10:50:48.545Z,1005.51
2018-03-22T10:51:48.457Z,1005.48
2018-03-22T10:52:48.372Z,1005.53
2018-03-22T10:53:48.298Z,1005.50
2018-03-22T10:54:48.208Z,1005.49
2018-03-22T10:55:48.138Z,1005.48
2018-03-22T10:56:48.033Z,1005.45
2018-03-22T10:57:47.947Z,1005.51
2018-03-22T10:58:47.871Z,1005.43
2018-03-22T10:59:47.782Z,1005.43
2018-03-22T11:00:47.696Z,1005.44
2018-03-22T11:01:47.608Z,1005.44
2018-03-22T11:02:47.533Z,1005.43
2018-03-22T11:03:47.448Z,1005.43
2018-03-22T11:04:47.359Z,1005.43
2018-03-22T11:05:47.272Z,1005.44
2018-03-22T11:06:47.185Z,1005.43
2018-03-22T11:07:47.110Z,1005.41
2018-03-22T11:08:47.022Z,1005.40
2018-03-22T11:09:46.933Z,1005.38
2018-03-22T11:10:46.848Z,1005.43
2018-03-22T11:11:46.772Z,1005.37
2018-03-22T11:12:46.684Z,1005.38
2018-03-22T11:13:46.600Z,1005.32
2018-03-22T11:14:46.518Z,1005.29
2018-03-22T11:15:46.435Z,1005.33
2018-03-22T11:16:46.348Z,1005.29
2018-03-22T11:17:46.260Z,1005.26
2018-03-22T11:18:46.184Z,1005.28
2018-03-22T11:19:46.153Z,1005.25
2018-03-22T11:20:46.010Z,1005.29
2018-03-22T11:21:45.923Z,1005.21
2018-03-22T11:22:45.837Z,1005.22
2018-03-22T11:23:45.760Z,1005.24
2018-03-22T11:24:45.673Z,1005.21
2018-03-22T11:25:45.585Z,1005.18
2018-03-22T11:26:45.514Z,1005.18
2018-03-22T11:27:45.424Z,1005.16
2018-03-22T11:28:45.348Z,1005.12
2018-03-22T11:29:45.249Z,1005.10
2018-03-22T11:30:45.174Z,1005.06
2018-03-22T11:31:45.087Z,1005.09
2018-03-22T11:32:44.999Z,1005.08
2018-03-22T11:33:44.913Z,1005.08
2018-03-22T11:34:44.836Z,1005.02
2018-03-22T11:35:44.749Z,1005.03
2018-03-22T11:36:44.662Z,1005.08
2018-03-22T11:37:44.600Z,1005.01
2018-03-22T11:38:44.500Z,1005.04
2018-03-22T11:39:44.412Z,1004.97
2018-03-22T11:40:44.329Z,1005.00
2018-03-22T11:41:44.251Z,1004.96
2018-03-22T11:42:44.162Z,1004.98
2018-03-22T11:43:44.076Z,1004.94
2018-03-22T11:44:44.001Z,1004.94
2018-03-22T11:45:43.912Z,1004.91
2018-03-22T11:46:43.831Z,1004.96
2018-03-22T11:47:43.739Z,1004.94
2018-03-22T11:48:43.652Z,1004.91
2018-03-22T11:49:43.576Z,1004.88
2018-03-22T11:50:43.502Z,1004.88
2018-03-22T11:51:43.401Z,1004.92
2018-03-22T11:52:43.326Z,1004.88
2018-03-22T11:53:43.267Z,1004.88
2018-03-22T11:54:43.152Z,1004.90
2018-03-22T11:55:43.063Z,1004.86
2018-03-22T11:56:43.008Z,1004.86
2018-03-22T11:57:42.902Z,1004.84
2018-03-22T11:58:42.813Z,1004.86
2018-03-22T11:59:42.737Z,1004.82
2018-03-22T12:00:42.652Z,1004.79
2018-03-22T12:01:42.564Z,1004.83
2018-03-22T12:02:42.481Z,1004.82
2018-03-22T12:03:42.403Z,1004.83
2018-03-22T12:04:42.320Z,1004.75